createdAt,value
2019-04-01T00:00:29.053Z,3.7
2019-04-01T00:00:59.703Z,3.7
2019-04-01T00:01:30.292Z,3.7
2019-04-01T00:02:00.884Z,3.6
2019-04-01T00:02:31.571Z,3.6
2019-04-01T00:03:02.265Z,3.6
2019-04-01T00:03:32.757Z,3.6
2019-04-01T00:04:03.350Z,3.6
2019-04-01T00:04:33.935Z,3.6
2019-04-01T00:05:53.008Z,3.6
2019-04-01T00:06:51.900Z,3.6
2019-04-01T00:07:50.668Z,3.6
2019-04-01T00:08:49.939Z,3.6
2019-04-01T00:09:48.802Z,3.6
2019-04-01T00:10:19.399Z,3.6
2019-04-01T00:10:49.991Z,3.6
2019-04-01T00:11:20.590Z,3.6
2019-04-01T00:11:51.178Z,3.6
2019-04-01T00:12:21.860Z,3.6
2019-04-01T00:12:52.461Z,3.6
2019-04-01T00:13:23.109Z,3.6
2019-04-01T00:13:53.797Z,3.6
2019-04-01T00:14:24.388Z,3.6
2019-04-01T00:15:42.890Z,3.5
2019-04-01T00:16:42.286Z,3.5
2019-04-01T00:17:41.152Z,3.5
2019-04-01T00:18:40.023Z,3.5
2019-04-01T00:19:38.898Z,3.4
2019-04-01T00:20:09.587Z,3.4
2019-04-01T00:20:40.167Z,3.4
2019-04-01T00:21:10.756Z,3.4
2019-04-01T00:21:45.081Z,3.4
2019-04-01T00:22:11.647Z,3.4
2019-04-01T00:22:42.689Z,3.4
2019-04-01T00:23:13.245Z,3.4
2019-04-01T00:23:43.429Z,3.4
2019-04-01T00:24:14.119Z,3.4
2019-04-01T00:24:44.706Z,3.4
2019-04-01T00:25:15.387Z,3.4
2019-04-01T00:26:32.173Z,3.4
2019-04-01T00:27:31.346Z,3.4
2019-04-01T00:28:30.134Z,3.4
2019-04-01T00:29:29.424Z,3.4
2019-04-01T00:30:28.199Z,3.4
2019-04-01T00:30:58.895Z,3.4
2019-04-01T00:31:29.583Z,3.4
2019-04-01T00:32:00.168Z,3.4
2019-04-01T00:32:30.762Z,3.3
2019-04-01T00:33:01.257Z,3.3
2019-04-01T00:33:32.017Z,3.3
2019-04-01T00:34:02.146Z,3.3
2019-04-01T00:35:23.572Z,3.3
2019-04-01T00:36:22.470Z,3.2
2019-04-01T00:37:21.843Z,3.3
2019-04-01T00:38:20.515Z,3.3
2019-04-01T00:39:19.885Z,3.2
2019-04-01T00:40:18.793Z,3.2
2019-04-01T00:41:17.689Z,3.2
2019-04-01T00:41:48.180Z,3.2
2019-04-01T00:42:18.874Z,3.2
2019-04-01T00:42:49.478Z,3.2
2019-04-01T00:43:20.074Z,3.2
2019-04-01T00:43:50.777Z,3.2
2019-04-01T00:45:13.808Z,3.2
2019-04-01T00:46:12.577Z,3.2
2019-04-01T00:47:11.962Z,3.2
2019-04-01T00:48:10.740Z,3.2
2019-04-01T00:50:09.030Z,3.1
2019-04-01T00:51:07.911Z,3.1
2019-04-01T00:52:07.183Z,3.1
2019-04-01T00:52:37.870Z,3.1
2019-04-01T00:53:08.442Z,3.1
2019-04-01T00:53:39.165Z,3.1
2019-04-01T00:55:04.222Z,3
2019-04-01T00:56:03.096Z,3
2019-04-01T00:57:01.880Z,3
2019-04-01T00:58:01.160Z,3
2019-04-01T00:58:59.824Z,3
2019-04-01T00:59:59.005Z,3
2019-04-01T01:00:58.378Z,2.9
2019-04-01T01:01:57.245Z,2.9
2019-04-01T01:02:27.832Z,2.9
2019-04-01T01:02:58.515Z,2.9
2019-04-01T01:03:29.103Z,2.9
2019-04-01T01:04:54.044Z,2.9
2019-04-01T01:05:53.328Z,2.8
2019-04-01T01:06:52.222Z,2.8
2019-04-01T01:07:51.112Z,2.8
2019-04-01T01:08:50.484Z,2.8
2019-04-01T01:09:49.256Z,2.7
2019-04-01T01:10:47.946Z,2.7
2019-04-01T01:11:47.332Z,2.7
2019-04-01T01:12:46.104Z,2.7
2019-04-01T01:13:16.695Z,2.7
2019-04-01T01:14:44.255Z,2.7
2019-04-01T01:15:43.542Z,2.7
2019-04-01T01:16:42.419Z,2.7
2019-04-01T01:17:41.195Z,2.7
2019-04-01T01:18:40.471Z,2.7
2019-04-01T01:19:39.332Z,2.6
2019-04-01T01:20:38.713Z,2.6
2019-04-01T01:21:37.497Z,2.6
2019-04-01T01:22:36.860Z,2.6
2019-04-01T01:23:35.637Z,2.6
2019-04-01T01:24:34.418Z,2.6
2019-04-01T01:25:33.793Z,2.6
2019-04-01T01:26:32.475Z,2.6
2019-04-01T01:27:31.874Z,2.5
2019-04-01T01:28:30.738Z,2.5
2019-04-01T01:29:01.335Z,2.5
2019-04-01T01:29:32.020Z,2.5
2019-04-01T01:30:28.872Z,2.5
2019-04-01T01:31:27.646Z,2.5
2019-04-01T01:32:26.415Z,2.5
2019-04-01T01:33:25.685Z,2.5
2019-04-01T01:34:24.589Z,2.4
2019-04-01T01:35:23.968Z,2.4
2019-04-01T01:36:22.542Z,2.4
2019-04-01T01:37:21.835Z,2.4
2019-04-01T01:38:20.603Z,2.4
2019-04-01T01:38:51.198Z,2.4
2019-04-01T01:39:21.795Z,2.3
2019-04-01T01:39:52.418Z,2.3
2019-04-01T01:40:23.093Z,2.3
2019-04-01T01:41:17.754Z,2.3
2019-04-01T01:42:16.628Z,2.3
2019-04-01T01:43:16.002Z,2.3
2019-04-01T01:44:14.872Z,2.3
2019-04-01T01:45:13.737Z,2.3
2019-04-01T01:46:13.006Z,2.3
2019-04-01T01:47:11.776Z,2.3
2019-04-01T01:48:10.641Z,2.3
2019-04-01T01:48:41.251Z,2.3
2019-04-01T01:49:11.938Z,2.2
2019-04-01T01:49:42.619Z,2.2
2019-04-01T01:51:08.072Z,2.2
2019-04-01T01:52:06.939Z,2.2
2019-04-01T01:53:05.815Z,2.2
2019-04-01T01:54:05.280Z,2.2
2019-04-01T01:55:04.068Z,2.1
2019-04-01T01:56:02.953Z,2.1
2019-04-01T01:57:01.840Z,2.1
2019-04-01T01:57:32.103Z,2.1
2019-04-01T01:58:02.286Z,2.1
2019-04-01T01:58:32.879Z,2.1
2019-04-01T01:59:03.635Z,2.1
2019-04-01T01:59:33.724Z,2.1
2019-04-01T02:00:58.231Z,2.1
2019-04-01T02:01:57.096Z,2.1
2019-04-01T02:02:55.960Z,2.1
2019-04-01T02:03:54.840Z,2
2019-04-01T02:04:54.201Z,2
2019-04-01T02:05:52.974Z,2
2019-04-01T02:06:51.846Z,2
2019-04-01T02:07:22.536Z,2
2019-04-01T02:07:53.233Z,2
2019-04-01T02:08:23.929Z,2
2019-04-01T02:08:54.519Z,2
2019-04-01T02:09:25.217Z,2
2019-04-01T02:09:55.900Z,2
2019-04-01T02:10:26.584Z,2
2019-04-01T02:11:47.087Z,2
2019-04-01T02:12:45.857Z,1.9
2019-04-01T02:13:45.069Z,1.9
2019-04-01T02:14:43.945Z,1.9
2019-04-01T02:15:43.318Z,1.9
2019-04-01T02:16:42.196Z,1.9
2019-04-01T02:17:12.969Z,1.9
2019-04-01T02:17:43.165Z,1.9
2019-04-01T02:18:13.848Z,1.9
2019-04-01T02:18:44.438Z,1.9
2019-04-01T02:19:14.926Z,1.9
2019-04-01T02:19:45.618Z,1.9
2019-04-01T02:20:16.322Z,1.9
2019-04-01T02:20:46.913Z,1.9
2019-04-01T02:21:17.609Z,1.9
2019-04-01T02:22:36.010Z,1.8
2019-04-01T02:23:35.004Z,1.8
2019-04-01T02:24:34.376Z,1.8
2019-04-01T02:25:33.240Z,1.8
2019-04-01T02:26:31.913Z,1.8
2019-04-01T02:27:02.497Z,1.8
2019-04-01T02:27:32.995Z,1.8
2019-04-01T02:28:03.600Z,1.8
2019-04-01T02:29:29.138Z,1.8
2019-04-01T02:29:59.817Z,1.8
2019-04-01T02:30:30.645Z,1.7
2019-04-01T02:31:00.884Z,1.7
2019-04-01T02:32:25.980Z,1.7
2019-04-01T02:33:25.296Z,1.7
2019-04-01T02:34:24.206Z,1.7
2019-04-01T02:35:22.990Z,1.7
2019-04-01T02:36:22.177Z,1.6
2019-04-01T02:37:21.098Z,1.7
2019-04-01T02:37:51.291Z,1.7
2019-04-01T02:38:22.021Z,1.7
2019-04-01T02:38:52.227Z,1.7
2019-04-01T02:39:22.926Z,1.6
2019-04-01T02:39:53.023Z,1.6
2019-04-01T02:40:23.803Z,1.6
2019-04-01T02:40:53.906Z,1.6
2019-04-01T02:42:15.845Z,1.6
2019-04-01T02:43:15.241Z,1.6
2019-04-01T02:44:14.221Z,1.6
2019-04-01T02:45:13.032Z,1.6
2019-04-01T02:46:12.336Z,1.6
2019-04-01T02:47:11.149Z,1.6
2019-04-01T02:47:41.169Z,1.6
2019-04-01T02:48:11.884Z,1.6
2019-04-01T02:48:41.986Z,1.6
2019-04-01T02:49:12.635Z,1.6
2019-04-01T02:49:42.744Z,1.6
2019-04-01T02:50:13.460Z,1.6
2019-04-01T02:50:43.593Z,1.6
2019-04-01T02:52:06.152Z,1.5
2019-04-01T02:53:05.063Z,1.5
2019-04-01T02:54:03.956Z,1.5
2019-04-01T02:55:08.564Z,1.5
2019-04-01T02:56:02.020Z,1.5
2019-04-01T02:57:00.935Z,1.5
2019-04-01T02:58:00.348Z,1.5
2019-04-01T02:58:30.603Z,1.5
2019-04-01T02:59:00.814Z,1.5
2019-04-01T02:59:31.021Z,1.5
2019-04-01T03:00:01.707Z,1.5
2019-04-01T03:00:31.848Z,1.5
2019-04-01T03:01:55.948Z,1.5
2019-04-01T03:02:55.265Z,1.5
2019-04-01T03:03:54.183Z,1.5
2019-04-01T03:04:52.979Z,1.5
2019-04-01T03:05:51.902Z,1.5
2019-04-01T03:06:51.326Z,1.5
2019-04-01T03:07:50.136Z,1.5
2019-04-01T03:08:49.068Z,1.5
2019-04-01T03:09:19.319Z,1.5
2019-04-01T03:09:49.588Z,1.5
2019-04-01T03:10:20.249Z,1.5
2019-04-01T03:11:46.354Z,1.4
2019-04-01T03:12:45.209Z,1.4
2019-04-01T03:13:44.140Z,1.4
2019-04-01T03:14:42.955Z,1.4
2019-04-01T03:15:41.753Z,1.4
2019-04-01T03:16:41.203Z,1.4
2019-04-01T03:17:40.098Z,1.4
2019-04-01T03:18:39.008Z,1.4
2019-04-01T03:19:09.634Z,1.4
2019-04-01T03:19:39.855Z,1.4
2019-04-01T03:20:10.200Z,1.4
2019-04-01T03:21:36.310Z,1.4
2019-04-01T03:22:35.226Z,1.5
2019-04-01T03:23:34.026Z,1.4
2019-04-01T03:24:32.961Z,1.4
2019-04-01T03:25:31.871Z,1.4
2019-04-01T03:26:30.770Z,1.4
2019-04-01T03:27:30.171Z,1.4
2019-04-01T03:29:27.844Z,1.4
2019-04-01T03:29:58.586Z,1.4
2019-04-01T03:30:28.801Z,1.4
2019-04-01T03:31:26.271Z,1.4
2019-04-01T03:32:25.231Z,1.4
2019-04-01T03:33:24.221Z,1.4
2019-04-01T03:34:23.204Z,1.4
2019-04-01T03:35:22.128Z,1.4
2019-04-01T03:36:21.030Z,1.4
2019-04-01T03:37:19.845Z,1.4
2019-04-01T03:38:18.732Z,1.4
2019-04-01T03:39:18.177Z,1.4
2019-04-01T03:40:16.976Z,1.3
2019-04-01T03:41:15.782Z,1.3
2019-04-01T03:42:14.613Z,1.3
2019-04-01T03:43:13.906Z,1.3
2019-04-01T03:44:12.836Z,1.3
2019-04-01T03:44:43.040Z,1.3
2019-04-01T03:46:10.645Z,1.3
2019-04-01T03:47:10.045Z,1.3
2019-04-01T03:48:08.861Z,1.3
2019-04-01T03:49:07.991Z,1.3
2019-04-01T03:50:06.803Z,1.3
2019-04-01T03:51:05.703Z,1.3
2019-04-01T03:52:04.540Z,1.3
2019-04-01T03:53:03.958Z,1.3
2019-04-01T03:54:02.793Z,1.3
2019-04-01T03:54:33.401Z,1.3
2019-04-01T03:55:04.144Z,1.3
2019-04-01T03:55:34.260Z,1.3
2019-04-01T03:56:59.752Z,1.3
2019-04-01T03:57:58.649Z,1.2
2019-04-01T03:58:57.654Z,1.2
2019-04-01T03:59:56.550Z,1.2
2019-04-01T04:00:55.464Z,1.2
2019-04-01T04:01:54.781Z,1.2
2019-04-01T04:02:53.676Z,1.2
2019-04-01T04:03:52.605Z,1.2
2019-04-01T04:04:22.835Z,1.2
2019-04-01T04:04:52.937Z,1.2
2019-04-01T04:05:23.562Z,1.2
2019-04-01T04:05:54.267Z,1.2
2019-04-01T04:06:24.374Z,1.2
2019-04-01T04:07:48.431Z,1.1
2019-04-01T04:08:47.724Z,1.1
2019-04-01T04:09:46.532Z,1.1
2019-04-01T04:10:45.343Z,1.1
2019-04-01T04:11:44.648Z,1.1
2019-04-01T04:12:43.557Z,1.1
2019-04-01T04:13:42.342Z,1.1
2019-04-01T04:14:12.986Z,1.1
2019-04-01T04:14:43.199Z,1.1
2019-04-01T04:15:13.307Z,1.1
2019-04-01T04:15:44.049Z,1.1
2019-04-01T04:16:14.057Z,1.1
2019-04-01T04:17:38.432Z,1.1
2019-04-01T04:18:37.354Z,1.1
2019-04-01T04:19:36.287Z,1.1
2019-04-01T04:20:35.175Z,1.1
2019-04-01T04:21:34.508Z,1.1
2019-04-01T04:22:33.499Z,1.1
2019-04-01T04:23:32.410Z,1
2019-04-01T04:24:02.626Z,1
2019-04-01T04:24:32.769Z,1.1
2019-04-01T04:25:03.520Z,1.1
2019-04-01T04:25:33.648Z,1.1
2019-04-01T04:26:04.296Z,1.1
2019-04-01T04:26:34.943Z,1.1
2019-04-01T04:27:05.778Z,1.1
2019-04-01T04:28:27.347Z,1
2019-04-01T04:29:26.386Z,1
2019-04-01T04:30:25.201Z,1
2019-04-01T04:31:24.106Z,1
2019-04-01T04:32:23.037Z,1
2019-04-01T04:33:22.397Z,1
2019-04-01T04:33:52.616Z,1
2019-04-01T04:34:23.237Z,1
2019-04-01T04:34:58.642Z,1
2019-04-01T04:35:23.825Z,1
2019-04-01T04:35:54.022Z,1
2019-04-01T04:36:24.257Z,1
2019-04-01T04:36:54.467Z,1
2019-04-01T04:37:24.580Z,1
2019-04-01T04:37:55.311Z,1
2019-04-01T04:39:16.322Z,0.9
2019-04-01T04:40:15.144Z,0.9
2019-04-01T04:41:13.949Z,0.9
2019-04-01T04:42:12.738Z,0.9
2019-04-01T04:43:12.145Z,0.9
2019-04-01T04:43:42.350Z,0.9
2019-04-01T04:44:12.572Z,0.9
2019-04-01T04:44:42.771Z,0.9
2019-04-01T04:45:13.381Z,0.9
2019-04-01T04:45:43.596Z,0.9
2019-04-01T04:46:13.695Z,0.9
2019-04-01T04:46:44.337Z,0.9
2019-04-01T04:47:14.858Z,0.9
2019-04-01T04:47:45.576Z,0.9
2019-04-01T04:49:06.022Z,0.9
2019-04-01T04:50:04.899Z,0.9
2019-04-01T04:51:04.179Z,0.9
2019-04-01T04:52:05.868Z,0.9
2019-04-01T04:53:01.760Z,0.9
2019-04-01T04:53:32.369Z,0.9
2019-04-01T04:54:02.574Z,0.9
2019-04-01T04:54:32.678Z,0.9
2019-04-01T04:55:03.276Z,0.9
2019-04-01T04:55:33.980Z,0.9
2019-04-01T04:56:03.977Z,0.9
2019-04-01T04:56:34.670Z,0.9
2019-04-01T04:57:04.684Z,0.9
2019-04-01T04:57:35.399Z,0.9
2019-04-01T04:58:55.827Z,0.9
2019-04-01T04:59:54.712Z,0.9
2019-04-01T05:00:53.683Z,0.9
2019-04-01T05:01:52.608Z,0.9
2019-04-01T05:02:51.398Z,0.8
2019-04-01T05:03:50.689Z,0.9
2019-04-01T05:04:21.399Z,0.9
2019-04-01T05:04:51.498Z,0.9
2019-04-01T05:05:22.196Z,0.9
2019-04-01T05:05:52.806Z,0.8
2019-04-01T05:06:23.399Z,0.8
2019-04-01T05:06:54.021Z,0.8
2019-04-01T05:07:24.137Z,0.8
2019-04-01T05:08:45.466Z,0.9
2019-04-01T05:09:44.763Z,0.9
2019-04-01T05:10:43.704Z,0.9
2019-04-01T05:11:42.593Z,0.9
2019-04-01T05:12:41.560Z,0.9
2019-04-01T05:13:40.447Z,0.9
2019-04-01T05:14:39.546Z,0.9
2019-04-01T05:15:10.242Z,0.9
2019-04-01T05:15:40.760Z,0.9
2019-04-01T05:16:11.530Z,0.9
2019-04-01T05:16:41.725Z,0.9
2019-04-01T05:17:12.327Z,0.9
2019-04-01T05:18:35.301Z,0.8
2019-04-01T05:19:34.584Z,0.9
2019-04-01T05:20:33.267Z,0.8
2019-04-01T05:21:32.713Z,0.8
2019-04-01T05:22:31.592Z,0.8
2019-04-01T05:23:30.378Z,0.9
2019-04-01T05:24:29.065Z,0.8
2019-04-01T05:24:59.570Z,0.8
2019-04-01T05:25:33.120Z,0.8
2019-04-01T05:26:00.699Z,0.8
2019-04-01T05:27:26.156Z,0.9
2019-04-01T05:28:24.842Z,0.9
2019-04-01T05:29:24.130Z,0.9
2019-04-01T05:30:23.013Z,0.8
2019-04-01T05:31:21.970Z,0.9
2019-04-01T05:32:21.358Z,0.9
2019-04-01T05:33:20.238Z,0.9
2019-04-01T05:34:19.194Z,0.9
2019-04-01T05:35:18.075Z,0.9
2019-04-01T05:35:48.081Z,0.9
2019-04-01T05:37:16.057Z,0.9
2019-04-01T05:38:14.941Z,0.9
2019-04-01T05:39:13.823Z,0.9
2019-04-01T05:40:13.130Z,0.9
2019-04-01T05:41:11.920Z,0.9
2019-04-01T05:42:10.802Z,0.9
2019-04-01T05:43:10.087Z,1
2019-04-01T05:44:08.874Z,1
2019-04-01T05:45:07.803Z,1
2019-04-01T05:46:06.699Z,1
2019-04-01T05:47:06.089Z,1
2019-04-01T05:48:04.968Z,1
2019-04-01T05:49:03.852Z,1.1
2019-04-01T05:50:02.745Z,1.1
2019-04-01T05:51:01.629Z,1.1
2019-04-01T05:51:31.828Z,1.1
2019-04-01T05:52:01.920Z,1.1
2019-04-01T05:52:59.807Z,1.1
2019-04-01T05:53:58.586Z,1.1
2019-04-01T05:54:57.971Z,1.1
2019-04-01T05:55:56.940Z,1.2
2019-04-01T05:56:55.730Z,1.2
2019-04-01T05:57:54.633Z,1.2
2019-04-01T05:58:53.313Z,1.2
2019-04-01T05:59:52.592Z,1.2
2019-04-01T06:00:51.873Z,1.2
2019-04-01T06:01:22.565Z,1.2
2019-04-01T06:02:49.626Z,1.3
2019-04-01T06:03:48.506Z,1.3
2019-04-01T06:04:47.192Z,1.4
2019-04-01T06:05:46.473Z,1.4
2019-04-01T06:06:49.159Z,1.4
2019-04-01T06:07:44.536Z,1.4
2019-04-01T06:08:43.315Z,1.4
2019-04-01T06:09:42.597Z,1.4
2019-04-01T06:10:41.387Z,1.5
2019-04-01T06:11:12.117Z,1.5
2019-04-01T06:11:42.411Z,1.5
2019-04-01T06:12:12.527Z,1.5
2019-04-01T06:12:43.225Z,1.5
2019-04-01T06:13:13.926Z,1.5
2019-04-01T06:13:44.526Z,1.5
2019-04-01T06:14:37.308Z,1.6
2019-04-01T06:15:36.089Z,1.6
2019-04-01T06:16:35.378Z,1.6
2019-04-01T06:17:34.256Z,1.7
2019-04-01T06:18:33.151Z,1.7
2019-04-01T06:19:32.348Z,1.7
2019-04-01T06:20:31.230Z,1.7
2019-04-01T06:21:01.928Z,1.7
2019-04-01T06:21:32.603Z,1.8
2019-04-01T06:22:02.865Z,1.8
2019-04-01T06:23:28.425Z,1.8
2019-04-01T06:24:27.314Z,1.8
2019-04-01T06:25:26.274Z,1.8
2019-04-01T06:27:27.489Z,1.9
2019-04-01T06:28:23.017Z,1.9
2019-04-01T06:29:22.475Z,1.9
2019-04-01T06:29:52.573Z,1.9
2019-04-01T06:30:23.171Z,1.9
2019-04-01T06:30:53.873Z,1.9
2019-04-01T06:31:24.089Z,2
2019-04-01T06:31:54.311Z,2
2019-04-01T06:32:24.502Z,2
2019-04-01T06:32:55.107Z,2
2019-04-01T06:34:17.043Z,2.1
2019-04-01T06:35:15.982Z,2.1
2019-04-01T06:36:15.266Z,2.2
2019-04-01T06:37:14.064Z,2.2
2019-04-01T06:38:12.952Z,2.3
2019-04-01T06:39:11.825Z,2.3
2019-04-01T06:39:42.441Z,2.3
2019-04-01T06:40:12.953Z,2.3
2019-04-01T06:40:43.552Z,2.3
2019-04-01T06:41:14.249Z,2.3
2019-04-01T06:41:44.849Z,2.3
2019-04-01T06:42:15.545Z,2.4
2019-04-01T06:42:46.145Z,2.4
2019-04-01T06:43:16.922Z,2.4
2019-04-01T06:43:47.128Z,2.4
2019-04-01T06:45:06.054Z,2.4
2019-04-01T06:46:04.927Z,2.5
2019-04-01T06:47:03.828Z,2.5
2019-04-01T06:48:02.615Z,2.5
2019-04-01T06:49:01.920Z,2.5
2019-04-01T06:49:32.530Z,2.5
2019-04-01T06:50:03.245Z,2.5
2019-04-01T06:50:33.342Z,2.5
2019-04-01T06:51:03.947Z,2.6
2019-04-01T06:51:34.649Z,2.6
2019-04-01T06:52:04.861Z,2.6
2019-04-01T06:52:34.864Z,2.6
2019-04-01T06:53:05.576Z,2.6
2019-04-01T06:53:35.777Z,2.6
2019-04-01T06:54:55.773Z,2.6
2019-04-01T06:55:54.661Z,2.7
2019-04-01T06:56:54.043Z,2.7
2019-04-01T06:57:52.924Z,2.7
2019-04-01T06:58:51.800Z,2.8
2019-04-01T06:59:22.408Z,2.8
2019-04-01T06:59:53.008Z,2.8
2019-04-01T07:00:23.707Z,2.8
2019-04-01T07:00:54.214Z,2.9
2019-04-01T07:01:24.809Z,2.9
2019-04-01T07:01:55.405Z,2.9
2019-04-01T07:02:26.138Z,2.9
2019-04-01T07:02:56.334Z,2.9
2019-04-01T07:03:26.533Z,2.9
2019-04-01T07:04:45.923Z,2.9
2019-04-01T07:05:44.625Z,3
2019-04-01T07:06:44.013Z,3
2019-04-01T07:07:42.893Z,3
2019-04-01T07:08:41.811Z,3.1
2019-04-01T07:09:40.693Z,3.1
2019-04-01T07:10:10.902Z,3.1
2019-04-01T07:10:41.578Z,3.2
2019-04-01T07:11:11.775Z,3.2
2019-04-01T07:11:42.803Z,3.2
2019-04-01T07:12:12.536Z,3.2
2019-04-01T07:12:43.056Z,3.2
2019-04-01T07:13:13.789Z,3.2
2019-04-01T07:14:35.729Z,3.2
2019-04-01T07:15:35.021Z,3.3
2019-04-01T07:16:33.902Z,3.3
2019-04-01T07:17:32.780Z,3.3
2019-04-01T07:18:31.661Z,3.4
2019-04-01T07:19:30.861Z,3.4
2019-04-01T07:20:29.673Z,3.5
2019-04-01T07:21:00.359Z,3.5
2019-04-01T07:21:30.465Z,3.5
2019-04-01T07:22:01.077Z,3.5
2019-04-01T07:22:31.777Z,3.5
2019-04-01T07:23:02.388Z,3.5
2019-04-01T07:24:25.919Z,3.6
2019-04-01T07:26:23.690Z,3.6
2019-04-01T07:27:22.887Z,3.6
2019-04-01T07:28:21.675Z,3.7
2019-04-01T07:29:21.061Z,3.7
2019-04-01T07:30:19.944Z,3.7
2019-04-01T07:31:18.824Z,3.8
2019-04-01T07:31:49.320Z,3.8
2019-04-01T07:32:19.850Z,3.8
2019-04-01T07:32:50.363Z,3.8
2019-04-01T07:34:15.821Z,3.8
2019-04-01T07:35:14.694Z,3.9
2019-04-01T07:36:14.081Z,3.9
2019-04-01T07:37:13.114Z,3.9
2019-04-01T07:38:11.998Z,3.9
2019-04-01T07:39:10.687Z,4
2019-04-01T07:40:13.607Z,4
2019-04-01T07:41:09.068Z,4
2019-04-01T07:41:39.775Z,4
2019-04-01T07:42:10.006Z,4
2019-04-01T07:42:40.196Z,4
2019-04-01T07:44:05.680Z,4.1
2019-04-01T07:45:04.978Z,4.1
2019-04-01T07:46:03.864Z,4.2
2019-04-01T07:47:03.158Z,4.2
2019-04-01T07:48:01.754Z,4.3
2019-04-01T07:49:01.165Z,4.4
2019-04-01T07:50:00.031Z,4.4
2019-04-01T07:50:59.147Z,4.4
2019-04-01T07:51:57.834Z,4.4
2019-04-01T07:52:28.428Z,4.4
2019-04-01T07:52:59.053Z,4.4
2019-04-01T07:53:55.926Z,4.4
2019-04-01T07:54:55.316Z,4.4
2019-04-01T07:55:54.194Z,4.4
2019-04-01T07:56:52.987Z,4.4
2019-04-01T07:57:23.588Z,4.4
2019-04-01T07:57:54.293Z,4.5
2019-04-01T07:58:51.168Z,4.5
2019-04-01T07:59:50.356Z,4.5
2019-04-01T08:00:49.171Z,4.5
2019-04-01T08:01:48.065Z,4.6
2019-04-01T08:02:50.205Z,4.6
2019-04-01T08:03:46.071Z,4.7
2019-04-01T08:04:45.457Z,4.7
2019-04-01T08:05:44.242Z,4.7
2019-04-01T08:06:43.122Z,4.7
2019-04-01T08:07:14.810Z,4.7
2019-04-01T08:08:41.385Z,4.8
2019-04-01T08:09:40.272Z,4.8
2019-04-01T08:10:39.606Z,4.9
2019-04-01T08:11:38.390Z,4.9
2019-04-01T08:12:37.516Z,4.9
2019-04-01T08:13:36.407Z,4.9
2019-04-01T08:14:35.387Z,4.9
2019-04-01T08:15:34.330Z,4.9
2019-04-01T08:16:33.718Z,5
2019-04-01T08:17:03.924Z,5
2019-04-01T08:17:34.041Z,5
2019-04-01T08:18:04.477Z,5
2019-04-01T08:19:30.505Z,5
2019-04-01T08:20:29.898Z,5
2019-04-01T08:21:28.789Z,5.1
2019-04-01T08:22:27.675Z,5.1
2019-04-01T08:23:26.552Z,5.1
2019-04-01T08:24:25.955Z,5.1
2019-04-01T08:25:24.833Z,5.1
2019-04-01T08:26:23.624Z,5.1
2019-04-01T08:26:54.252Z,5.1
2019-04-01T08:27:24.768Z,5.1
2019-04-01T08:27:55.479Z,5.1
2019-04-01T08:28:26.001Z,5.2
2019-04-01T08:28:56.505Z,5.2
2019-04-01T08:30:20.070Z,5.2
2019-04-01T08:32:17.828Z,5.2
2019-04-01T08:33:17.250Z,5.2
2019-04-01T08:34:16.039Z,5.2
2019-04-01T08:35:14.829Z,5.3
2019-04-01T08:36:14.222Z,5.3
2019-04-01T08:36:44.314Z,5.3
2019-04-01T08:37:15.014Z,5.3
2019-04-01T08:37:45.521Z,5.3
2019-04-01T08:38:16.225Z,5.4
2019-04-01T08:38:46.822Z,5.4
2019-04-01T08:40:10.354Z,5.4
2019-04-01T08:41:09.241Z,5.5
2019-04-01T08:42:08.028Z,5.5
2019-04-01T08:43:07.526Z,5.5
2019-04-01T08:44:06.429Z,5.6
2019-04-01T08:45:05.327Z,5.6
2019-04-01T08:46:04.229Z,5.6
2019-04-01T08:46:34.429Z,5.6
2019-04-01T08:47:04.539Z,5.6
2019-04-01T08:47:35.234Z,5.6
2019-04-01T08:48:05.936Z,5.6
2019-04-01T08:48:36.979Z,5.6
2019-04-01T08:49:09.209Z,5.6
2019-04-01T08:49:37.301Z,5.6
2019-04-01T08:50:59.339Z,5.6
2019-04-01T08:51:58.631Z,5.6
2019-04-01T08:52:57.517Z,5.6
2019-04-01T08:53:56.804Z,5.7
2019-04-01T08:54:55.511Z,5.7
2019-04-01T08:56:02.363Z,5.8
2019-04-01T08:56:25.519Z,5.8
2019-04-01T08:56:55.614Z,5.8
2019-04-01T08:57:26.238Z,5.8
2019-04-01T08:57:56.937Z,5.9
2019-04-01T08:58:27.544Z,5.9
2019-04-01T08:58:57.750Z,5.9
2019-04-01T08:59:27.945Z,5.9
2019-04-01T08:59:58.148Z,5.9
2019-04-01T09:00:28.406Z,5.9
2019-04-01T09:01:48.847Z,5.8
2019-04-01T09:02:48.229Z,5.9
2019-04-01T09:03:47.113Z,5.9
2019-04-01T09:04:46.000Z,5.9
2019-04-01T09:05:45.643Z,6
2019-04-01T09:06:15.786Z,6
2019-04-01T09:06:46.004Z,6
2019-04-01T09:07:16.212Z,6
2019-04-01T09:07:46.424Z,6.2
2019-04-01T09:08:16.623Z,6.2
2019-04-01T09:08:46.816Z,6.2
2019-04-01T09:09:17.414Z,6.2
2019-04-01T09:09:48.013Z,6.2
2019-04-01T09:10:18.710Z,6.2
2019-04-01T09:11:40.030Z,6.3
2019-04-01T09:12:38.315Z,6.3
2019-04-01T09:13:37.704Z,6.3
2019-04-01T09:14:36.576Z,6.3
2019-04-01T09:15:35.371Z,6.3
2019-04-01T09:16:34.655Z,6.3
2019-04-01T09:17:05.299Z,6.3
2019-04-01T09:17:36.009Z,6.3
2019-04-01T09:18:06.215Z,6.3
2019-04-01T09:18:36.659Z,6.4
2019-04-01T09:19:06.875Z,6.4
2019-04-01T09:19:37.073Z,6.4
2019-04-01T09:20:07.172Z,6.4
2019-04-01T09:21:29.800Z,6.5
2019-04-01T09:22:28.713Z,6.5
2019-04-01T09:23:28.120Z,6.5
2019-04-01T09:24:26.913Z,6.5
2019-04-01T09:25:26.198Z,6.5
2019-04-01T09:26:24.790Z,6.5
2019-04-01T09:27:24.080Z,6.5
2019-04-01T09:27:54.791Z,6.5
2019-04-01T09:28:24.895Z,6.5
2019-04-01T09:28:55.499Z,6.5
2019-04-01T09:29:26.112Z,6.6
2019-04-01T09:29:56.834Z,6.6
2019-04-01T09:31:20.398Z,6.6
2019-04-01T09:32:19.280Z,6.6
2019-04-01T09:33:18.681Z,6.6
2019-04-01T09:34:17.568Z,6.7
2019-04-01T09:35:16.357Z,6.7
2019-04-01T09:36:15.761Z,6.7
2019-04-01T09:37:14.552Z,6.7
2019-04-01T09:37:45.249Z,6.7
2019-04-01T09:38:15.854Z,6.8
2019-04-01T09:38:46.566Z,6.8
2019-04-01T09:39:16.792Z,6.8
2019-04-01T09:39:46.898Z,6.8
2019-04-01T09:41:14.798Z,6.8
2019-04-01T09:42:10.173Z,6.8
2019-04-01T09:43:09.054Z,6.8
2019-04-01T09:44:07.945Z,6.8
2019-04-01T09:45:07.326Z,6.8
2019-04-01T09:46:06.206Z,6.9
2019-04-01T09:47:04.889Z,7
2019-04-01T09:48:04.271Z,7.1
2019-04-01T09:48:34.477Z,7.1
2019-04-01T09:49:04.701Z,7.1
2019-04-01T09:49:34.882Z,7.1
2019-04-01T09:51:01.458Z,7.2
2019-04-01T09:52:04.692Z,7.2
2019-04-01T09:52:59.545Z,7.3
2019-04-01T09:53:58.437Z,7.3
2019-04-01T09:54:57.844Z,7.3
2019-04-01T09:55:56.734Z,7.3
2019-04-01T09:56:55.437Z,7.4
2019-04-01T09:57:54.822Z,7.4
2019-04-01T09:58:53.702Z,7.4
2019-04-01T09:59:24.400Z,7.4
2019-04-01T09:59:55.198Z,7.4
2019-04-01T10:00:25.302Z,7.4
2019-04-01T10:00:56.004Z,7.5
2019-04-01T10:01:51.363Z,7.6
2019-04-01T10:02:50.250Z,7.7
2019-04-01T10:03:49.031Z,7.7
2019-04-01T10:04:48.414Z,7.7
2019-04-01T10:05:47.299Z,7.7
2019-04-01T10:06:46.585Z,7.6
2019-04-01T10:07:46.530Z,7.6
2019-04-01T10:08:44.485Z,7.6
2019-04-01T10:09:43.986Z,7.6
2019-04-01T10:10:42.768Z,7.6
2019-04-01T10:11:42.057Z,7.7
2019-04-01T10:12:40.956Z,7.7
2019-04-01T10:13:39.883Z,7.8
2019-04-01T10:14:38.806Z,7.9
2019-04-01T10:15:09.026Z,7.9
2019-04-01T10:15:39.630Z,8
2019-04-01T10:16:37.414Z,8.1
2019-04-01T10:17:36.111Z,8.2
2019-04-01T10:18:35.505Z,8.2
2019-04-01T10:19:34.390Z,8.2
2019-04-01T10:20:33.692Z,8.2
2019-04-01T10:21:32.483Z,8.2
2019-04-01T10:22:31.266Z,8.2
2019-04-01T10:23:30.657Z,8.3
2019-04-01T10:24:29.537Z,8.2
2019-04-01T10:25:00.395Z,8.2
2019-04-01T10:26:27.906Z,8.3
2019-04-01T10:27:26.695Z,8.3
2019-04-01T10:28:26.071Z,8.3
2019-04-01T10:29:24.970Z,8.3
2019-04-01T10:30:24.456Z,8.3
2019-04-01T10:31:23.332Z,8.4
2019-04-01T10:32:22.209Z,8.5
2019-04-01T10:33:21.399Z,8.5
2019-04-01T10:34:20.707Z,8.6
2019-04-01T10:34:51.314Z,8.6
2019-04-01T10:35:21.924Z,8.6
2019-04-01T10:35:52.649Z,8.6
2019-04-01T10:37:17.719Z,8.6
2019-04-01T10:38:17.017Z,8.5
2019-04-01T10:39:15.818Z,8.5
2019-04-01T10:40:15.201Z,8.5
2019-04-01T10:41:14.100Z,8.5
2019-04-01T10:43:12.433Z,8.5
2019-04-01T10:44:11.231Z,8.6
2019-04-01T10:44:41.948Z,8.6
2019-04-01T10:45:12.553Z,8.7
2019-04-01T10:45:42.760Z,8.7
2019-04-01T10:46:13.638Z,8.7
2019-04-01T10:46:43.576Z,8.7
2019-04-01T10:48:07.835Z,8.8
2019-04-01T10:49:06.801Z,8.8
2019-04-01T10:50:06.042Z,8.8
2019-04-01T10:51:05.116Z,8.8
2019-04-01T10:52:04.434Z,8.8
2019-04-01T10:54:02.482Z,8.8
2019-04-01T10:54:33.006Z,8.8
2019-04-01T10:55:03.615Z,8.8
2019-04-01T10:55:34.190Z,8.8
2019-04-01T10:56:04.692Z,8.8
2019-04-01T10:56:37.354Z,8.8
2019-04-01T10:57:05.898Z,8.8
2019-04-01T10:57:36.591Z,8.8
2019-04-01T10:58:57.938Z,8.9
2019-04-01T10:59:56.976Z,8.9
2019-04-01T11:00:56.071Z,9
2019-04-01T11:01:55.100Z,9
2019-04-01T11:02:54.316Z,9
2019-04-01T11:04:52.358Z,9.1
2019-04-01T11:05:22.841Z,9.1
2019-04-01T11:05:53.207Z,9
2019-04-01T11:06:23.725Z,9
2019-04-01T11:06:54.320Z,9.1
2019-04-01T11:07:24.912Z,9.1
2019-04-01T11:08:48.610Z,9.1
2019-04-01T11:09:47.906Z,9.2
2019-04-01T11:10:46.700Z,9.3
2019-04-01T11:11:46.094Z,9.4
2019-04-01T11:12:44.883Z,9.4
2019-04-01T11:13:44.261Z,9.5
2019-04-01T11:14:14.956Z,9.5
2019-04-01T11:14:45.717Z,9.5
2019-04-01T11:15:17.118Z,9.5
2019-04-01T11:15:46.215Z,9.6
2019-04-01T11:16:18.139Z,9.6
2019-04-01T11:16:47.759Z,9.5
2019-04-01T11:17:18.010Z,9.5
2019-04-01T11:17:52.807Z,9.7
2019-04-01T11:18:18.575Z,9.7
2019-04-01T11:19:40.348Z,9.6
2019-04-01T11:20:38.140Z,9.6
2019-04-01T11:21:36.948Z,9.6
2019-04-01T11:22:36.351Z,9.5
2019-04-01T11:23:35.152Z,9.5
2019-04-01T11:24:34.444Z,9.6
2019-04-01T11:25:04.955Z,9.6
2019-04-01T11:25:35.587Z,9.6
2019-04-01T11:26:06.391Z,9.6